Aérodrome :
LOGIN :

S'inscrire | Disclaimer

   EN    FR    IT 

 










Légende :    VFR   VFR Marginal   IFR   IFR Intensif   IFR Très Intensif
Visi : 
Plafond : 
>= 8 km
>= 3000ft
5 à 8 km
1000 à 3000 ft
1500m à 5 km
500 à 1000 ft
800 à 1500m
200 à 500 ft
< 800m
< 200 ft
Symboles :   Orages  Brouillard  Fortes neiges  Fortes précipitations  Vent > 20 kt
SIGMETs :   Divers  Orages  Givrage  Turbulence  Onde Orograph.  Cendres Volcan.






- Altitude de l'aérodrome : 83 ft
- Code IATA : LHR


EGLL - London Heathrow

DERNIER METAR :
  • 142350Z AUTO 03004KT 9000 SCT026 OVC042 04/04 Q1004 NOSIG

METARs EXPIRÉS :
  • 142320Z AUTO 01004KT 340V060 9999 OVC049 05/04 Q1003 NOSIG
  • 142250Z AUTO 36004KT 320V030 9999 FEW030 SCT040 OVC046 05/04 Q1003 NOSIG
  • 142220Z AUTO 36004KT 340V040 9999 -RA BKN042 05/04 Q1003 NOSIG
  • 142150Z AUTO 04004KT 9999 FEW030 BKN036 06/05 Q1003 NOSIG
  • 142120Z AUTO 04005KT 010V070 9999 SCT031 BKN040 06/04 Q1003
  • 142050Z AUTO 04005KT 9999 BKN032 BKN043 06/05 Q1002

TAF TAF EGLL
Valide du 15 à 00h jusqu'au 16 à 06h UTC


142258Z 1500/1606 01008KT 9999 SCT018
TEMPO 1500/1511 7000 BKN010
PROB30
TEMPO 1500/1507 4000 BR BKN006
PROB40
TEMPO 1507/1510 4500 SHRA BKN008
PROB40
TEMPO 1513/1518 01015G26KT
TEMPO 1515/1602 7000 -RADZ BKN012
PROB40
TEMPO 1516/1606 4000 RA SHRA BKN009



MET'MAP, la Météo Aéronautique d'un coup d'oeil ! - Copyright ORBIFLY Décembre 2007 - Disclaimer

ORBIFLY MET'MAP TEAM :

Programmation & Développement : Alexandra Zaïnal
Conception & Développement : Baudouin d'Aumeries
Co-Programmation & Développement : Marc-Olivier Méhu
Soutien technique & logistique : Manuel Goepfert

Contact : metmap@orbifly.com




SOURCES & CREDITS :

   NOAA